sensor_id;sensor_type;location;lat;lon;timestamp;P1;durP1;ratioP1;P2;durP2;ratioP2
36443;SDS011;24692;45.642;13.806;2022-12-29T00:01:15;43.53;;;21.30;;
36443;SDS011;24692;45.642;13.806;2022-12-29T00:03:41;45.43;;;23.80;;
36443;SDS011;24692;45.642;13.806;2022-12-29T00:06:06;41.83;;;22.73;;
36443;SDS011;24692;45.642;13.806;2022-12-29T00:08:32;40.47;;;21.37;;
36443;SDS011;24692;45.642;13.806;2022-12-29T00:11:10;41.23;;;21.97;;
36443;SDS011;24692;45.642;13.806;2022-12-29T00:13:41;42.33;;;23.13;;
36443;SDS011;24692;45.642;13.806;2022-12-29T00:16:26;41.33;;;22.17;;
36443;SDS011;24692;45.642;13.806;2022-12-29T00:18:51;40.67;;;23.47;;
36443;SDS011;24692;45.642;13.806;2022-12-29T00:21:18;43.03;;;21.93;;
36443;SDS011;24692;45.642;13.806;2022-12-29T00:24:05;43.87;;;22.07;;
36443;SDS011;24692;45.642;13.806;2022-12-29T00:26:33;38.30;;;22.53;;
36443;SDS011;24692;45.642;13.806;2022-12-29T00:29:18;43.87;;;22.97;;
36443;SDS011;24692;45.642;13.806;2022-12-29T00:32:02;46.30;;;22.63;;
36443;SDS011;24692;45.642;13.806;2022-12-29T00:34:48;43.33;;;21.70;;
36443;SDS011;24692;45.642;13.806;2022-12-29T00:37:32;38.00;;;20.30;;
36443;SDS011;24692;45.642;13.806;2022-12-29T00:40:16;38.37;;;21.00;;
36443;SDS011;24692;45.642;13.806;2022-12-29T00:43:00;38.67;;;21.40;;
36443;SDS011;24692;45.642;13.806;2022-12-29T00:45:44;41.60;;;21.10;;
36443;SDS011;24692;45.642;13.806;2022-12-29T00:48:10;39.23;;;20.37;;
36443;SDS011;24692;45.642;13.806;2022-12-29T00:50:35;36.57;;;20.83;;
36443;SDS011;24692;45.642;13.806;2022-12-29T00:53:01;39.00;;;21.57;;
36443;SDS011;24692;45.642;13.806;2022-12-29T00:55:27;41.87;;;22.23;;
36443;SDS011;24692;45.642;13.806;2022-12-29T00:57:52;43.90;;;22.80;;
36443;SDS011;24692;45.642;13.806;2022-12-29T01:00:18;39.73;;;21.33;;
36443;SDS011;24692;45.642;13.806;2022-12-29T01:02:43;39.30;;;21.87;;
36443;SDS011;24692;45.642;13.806;2022-12-29T01:05:09;39.23;;;21.47;;
36443;SDS011;24692;45.642;13.806;2022-12-29T01:07:35;41.70;;;22.43;;
36443;SDS011;24692;45.642;13.806;2022-12-29T01:10:00;37.87;;;21.10;;
36443;SDS011;24692;45.642;13.806;2022-12-29T01:12:35;39.13;;;21.03;;
36443;SDS011;24692;45.642;13.806;2022-12-29T01:15:09;41.67;;;21.37;;
36443;SDS011;24692;45.642;13.806;2022-12-29T01:17:37;39.27;;;21.53;;
36443;SDS011;24692;45.642;13.806;2022-12-29T01:20:03;38.87;;;20.67;;
36443;SDS011;24692;45.642;13.806;2022-12-29T01:22:29;38.97;;;20.40;;
36443;SDS011;24692;45.642;13.806;2022-12-29T01:24:55;39.53;;;21.63;;
36443;SDS011;24692;45.642;13.806;2022-12-29T01:27:21;37.30;;;20.97;;
36443;SDS011;24692;45.642;13.806;2022-12-29T01:29:46;37.53;;;21.30;;
36443;SDS011;24692;45.642;13.806;2022-12-29T01:32:12;36.13;;;20.20;;
36443;SDS011;24692;45.642;13.806;2022-12-29T01:34:37;38.77;;;21.00;;
36443;SDS011;24692;45.642;13.806;2022-12-29T01:37:03;32.97;;;19.47;;
36443;SDS011;24692;45.642;13.806;2022-12-29T01:39:29;39.43;;;20.70;;
36443;SDS011;24692;45.642;13.806;2022-12-29T01:41:54;38.00;;;21.53;;
36443;SDS011;24692;45.642;13.806;2022-12-29T01:47:07;41.80;;;21.03;;
36443;SDS011;24692;45.642;13.806;2022-12-29T01:49:33;34.47;;;20.87;;
36443;SDS011;24692;45.642;13.806;2022-12-29T01:52:01;36.40;;;20.10;;
36443;SDS011;24692;45.642;13.806;2022-12-29T01:54:32;32.40;;;18.77;;
36443;SDS011;24692;45.642;13.806;2022-12-29T01:57:05;37.07;;;21.57;;
36443;SDS011;24692;45.642;13.806;2022-12-29T01:59:37;34.83;;;19.37;;
36443;SDS011;24692;45.642;13.806;2022-12-29T02:02:07;36.57;;;20.10;;
36443;SDS011;24692;45.642;13.806;2022-12-29T02:04:33;33.67;;;19.50;;
36443;SDS011;24692;45.642;13.806;2022-12-29T02:07:05;36.37;;;19.77;;
36443;SDS011;24692;45.642;13.806;2022-12-29T02:09:40;35.67;;;19.90;;
36443;SDS011;24692;45.642;13.806;2022-12-29T02:12:07;35.17;;;19.57;;
36443;SDS011;24692;45.642;13.806;2022-12-29T02:14:33;34.60;;;18.67;;
36443;SDS011;24692;45.642;13.806;2022-12-29T02:30:49;35.93;;;20.03;;
36443;SDS011;24692;45.642;13.806;2022-12-29T02:36:15;34.30;;;20.07;;
36443;SDS011;24692;45.642;13.806;2022-12-29T02:39:05;36.87;;;19.90;;
36443;SDS011;24692;45.642;13.806;2022-12-29T02:47:11;34.47;;;19.47;;
36443;SDS011;24692;45.642;13.806;2022-12-29T02:52:20;35.63;;;19.67;;
36443;SDS011;24692;45.642;13.806;2022-12-29T02:54:52;39.30;;;20.60;;
36443;SDS011;24692;45.642;13.806;2022-12-29T02:59:48;35.40;;;19.87;;
36443;SDS011;24692;45.642;13.806;2022-12-29T03:13:52;34.93;;;19.93;;
36443;SDS011;24692;45.642;13.806;2022-12-29T03:16:43;37.43;;;20.43;;
36443;SDS011;24692;45.642;13.806;2022-12-29T03:19:35;40.00;;;20.80;;
36443;SDS011;24692;45.642;13.806;2022-12-29T03:22:04;35.37;;;19.90;;
36443;SDS011;24692;45.642;13.806;2022-12-29T03:24:52;34.20;;;18.63;;
36443;SDS011;24692;45.642;13.806;2022-12-29T03:27:22;37.47;;;20.60;;
36443;SDS011;24692;45.642;13.806;2022-12-29T03:30:00;38.07;;;20.23;;
36443;SDS011;24692;45.642;13.806;2022-12-29T03:32:33;36.53;;;20.37;;
36443;SDS011;24692;45.642;13.806;2022-12-29T03:35:31;34.87;;;19.87;;
36443;SDS011;24692;45.642;13.806;2022-12-29T03:38:00;35.83;;;20.70;;
36443;SDS011;24692;45.642;13.806;2022-12-29T03:40:33;36.80;;;20.17;;
36443;SDS011;24692;45.642;13.806;2022-12-29T03:43:01;37.03;;;20.07;;
36443;SDS011;24692;45.642;13.806;2022-12-29T03:45:28;36.30;;;20.77;;
36443;SDS011;24692;45.642;13.806;2022-12-29T03:47:53;38.47;;;19.67;;
36443;SDS011;24692;45.642;13.806;2022-12-29T03:50:19;38.03;;;20.60;;
36443;SDS011;24692;45.642;13.806;2022-12-29T03:52:44;37.57;;;20.67;;
36443;SDS011;24692;45.642;13.806;2022-12-29T03:55:10;37.03;;;20.37;;
36443;SDS011;24692;45.642;13.806;2022-12-29T03:57:36;34.50;;;19.50;;
36443;SDS011;24692;45.642;13.806;2022-12-29T04:00:03;33.97;;;19.60;;
36443;SDS011;24692;45.642;13.806;2022-12-29T04:02:29;36.57;;;19.57;;
36443;SDS011;24692;45.642;13.806;2022-12-29T04:04:55;36.73;;;20.50;;
36443;SDS011;24692;45.642;13.806;2022-12-29T04:07:21;34.10;;;19.90;;
36443;SDS011;24692;45.642;13.806;2022-12-29T04:09:46;32.97;;;19.77;;
36443;SDS011;24692;45.642;13.806;2022-12-29T04:12:12;37.20;;;19.83;;
36443;SDS011;24692;45.642;13.806;2022-12-29T04:14:39;38.33;;;20.67;;
36443;SDS011;24692;45.642;13.806;2022-12-29T04:17:05;37.53;;;20.57;;
36443;SDS011;24692;45.642;13.806;2022-12-29T04:19:30;36.97;;;20.33;;
36443;SDS011;24692;45.642;13.806;2022-12-29T04:21:56;37.37;;;20.87;;
36443;SDS011;24692;45.642;13.806;2022-12-29T04:24:22;41.30;;;21.80;;
36443;SDS011;24692;45.642;13.806;2022-12-29T04:26:47;39.73;;;20.77;;
36443;SDS011;24692;45.642;13.806;2022-12-29T04:29:13;35.97;;;19.73;;
36443;SDS011;24692;45.642;13.806;2022-12-29T04:31:39;37.90;;;20.77;;
36443;SDS011;24692;45.642;13.806;2022-12-29T04:34:04;41.30;;;21.17;;
36443;SDS011;24692;45.642;13.806;2022-12-29T04:36:30;36.73;;;20.07;;
36443;SDS011;24692;45.642;13.806;2022-12-29T04:38:56;38.63;;;21.90;;
36443;SDS011;24692;45.642;13.806;2022-12-29T04:41:21;34.70;;;20.87;;
36443;SDS011;24692;45.642;13.806;2022-12-29T04:43:47;36.37;;;19.67;;
36443;SDS011;24692;45.642;13.806;2022-12-29T04:46:13;38.40;;;20.70;;
36443;SDS011;24692;45.642;13.806;2022-12-29T04:48:38;35.33;;;20.00;;
36443;SDS011;24692;45.642;13.806;2022-12-29T04:51:04;34.70;;;19.87;;
36443;SDS011;24692;45.642;13.806;2022-12-29T04:53:30;29.23;;;17.63;;
36443;SDS011;24692;45.642;13.806;2022-12-29T04:55:55;27.90;;;17.30;;
36443;SDS011;24692;45.642;13.806;2022-12-29T04:58:21;28.67;;;16.87;;
36443;SDS011;24692;45.642;13.806;2022-12-29T05:00:47;33.97;;;18.20;;
36443;SDS011;24692;45.642;13.806;2022-12-29T05:03:12;32.07;;;17.13;;
36443;SDS011;24692;45.642;13.806;2022-12-29T05:05:38;29.37;;;16.87;;
36443;SDS011;24692;45.642;13.806;2022-12-29T05:08:04;32.13;;;17.57;;
36443;SDS011;24692;45.642;13.806;2022-12-29T05:10:30;30.83;;;16.73;;
36443;SDS011;24692;45.642;13.806;2022-12-29T05:12:55;31.57;;;16.43;;
36443;SDS011;24692;45.642;13.806;2022-12-29T05:15:23;26.50;;;16.63;;
36443;SDS011;24692;45.642;13.806;2022-12-29T05:17:48;32.00;;;17.03;;
36443;SDS011;24692;45.642;13.806;2022-12-29T05:20:14;36.00;;;18.13;;
36443;SDS011;24692;45.642;13.806;2022-12-29T05:22:40;33.53;;;16.70;;
36443;SDS011;24692;45.642;13.806;2022-12-29T05:25:05;29.40;;;17.23;;
36443;SDS011;24692;45.642;13.806;2022-12-29T05:27:31;31.17;;;16.40;;
36443;SDS011;24692;45.642;13.806;2022-12-29T05:29:57;31.13;;;17.23;;
36443;SDS011;24692;45.642;13.806;2022-12-29T05:32:23;28.57;;;16.97;;
36443;SDS011;24692;45.642;13.806;2022-12-29T05:34:49;28.90;;;16.67;;
36443;SDS011;24692;45.642;13.806;2022-12-29T05:37:14;32.23;;;17.50;;
36443;SDS011;24692;45.642;13.806;2022-12-29T05:39:40;29.33;;;17.37;;
36443;SDS011;24692;45.642;13.806;2022-12-29T05:42:06;31.13;;;17.10;;
36443;SDS011;24692;45.642;13.806;2022-12-29T05:44:31;31.90;;;17.40;;
36443;SDS011;24692;45.642;13.806;2022-12-29T05:46:57;29.53;;;16.43;;
36443;SDS011;24692;45.642;13.806;2022-12-29T05:49:22;32.77;;;16.80;;
36443;SDS011;24692;45.642;13.806;2022-12-29T05:51:48;30.90;;;16.60;;
36443;SDS011;24692;45.642;13.806;2022-12-29T05:54:14;32.17;;;18.07;;
36443;SDS011;24692;45.642;13.806;2022-12-29T05:56:40;30.93;;;16.83;;
36443;SDS011;24692;45.642;13.806;2022-12-29T05:59:05;30.43;;;16.13;;
36443;SDS011;24692;45.642;13.806;2022-12-29T06:01:31;31.97;;;17.20;;
36443;SDS011;24692;45.642;13.806;2022-12-29T06:03:58;32.17;;;17.17;;
36443;SDS011;24692;45.642;13.806;2022-12-29T06:06:23;28.83;;;16.80;;
36443;SDS011;24692;45.642;13.806;2022-12-29T06:08:49;29.97;;;17.37;;
36443;SDS011;24692;45.642;13.806;2022-12-29T06:11:15;29.97;;;17.10;;
36443;SDS011;24692;45.642;13.806;2022-12-29T06:13:40;33.27;;;17.80;;
36443;SDS011;24692;45.642;13.806;2022-12-29T06:16:07;28.90;;;16.50;;
36443;SDS011;24692;45.642;13.806;2022-12-29T06:18:33;30.77;;;16.83;;
36443;SDS011;24692;45.642;13.806;2022-12-29T06:21:00;33.93;;;18.70;;
36443;SDS011;24692;45.642;13.806;2022-12-29T06:23:26;31.40;;;17.53;;
36443;SDS011;24692;45.642;13.806;2022-12-29T06:25:52;29.37;;;17.27;;
36443;SDS011;24692;45.642;13.806;2022-12-29T06:28:18;32.77;;;18.07;;
36443;SDS011;24692;45.642;13.806;2022-12-29T06:30:44;31.43;;;17.90;;
36443;SDS011;24692;45.642;13.806;2022-12-29T06:33:10;32.93;;;17.30;;
36443;SDS011;24692;45.642;13.806;2022-12-29T06:35:37;32.40;;;18.50;;
36443;SDS011;24692;45.642;13.806;2022-12-29T06:38:03;34.97;;;19.17;;
36443;SDS011;24692;45.642;13.806;2022-12-29T06:40:28;29.63;;;17.13;;
36443;SDS011;24692;45.642;13.806;2022-12-29T06:42:54;31.40;;;17.77;;
36443;SDS011;24692;45.642;13.806;2022-12-29T06:45:20;31.47;;;18.50;;
36443;SDS011;24692;45.642;13.806;2022-12-29T06:47:46;32.70;;;18.23;;
36443;SDS011;24692;45.642;13.806;2022-12-29T06:50:11;27.23;;;16.67;;
36443;SDS011;24692;45.642;13.806;2022-12-29T06:52:37;31.57;;;17.90;;
36443;SDS011;24692;45.642;13.806;2022-12-29T06:55:03;30.03;;;16.97;;
36443;SDS011;24692;45.642;13.806;2022-12-29T06:57:29;27.40;;;16.20;;
36443;SDS011;24692;45.642;13.806;2022-12-29T06:59:54;28.73;;;15.77;;
36443;SDS011;24692;45.642;13.806;2022-12-29T07:02:23;34.00;;;18.30;;
36443;SDS011;24692;45.642;13.806;2022-12-29T07:04:50;33.83;;;18.53;;
36443;SDS011;24692;45.642;13.806;2022-12-29T07:07:17;36.80;;;20.63;;
36443;SDS011;24692;45.642;13.806;2022-12-29T07:09:46;37.40;;;20.33;;
36443;SDS011;24692;45.642;13.806;2022-12-29T07:12:12;41.00;;;21.57;;
36443;SDS011;24692;45.642;13.806;2022-12-29T07:14:38;41.43;;;22.10;;
36443;SDS011;24692;45.642;13.806;2022-12-29T07:17:04;42.90;;;23.17;;
36443;SDS011;24692;45.642;13.806;2022-12-29T07:19:31;43.13;;;22.50;;
36443;SDS011;24692;45.642;13.806;2022-12-29T07:21:57;39.77;;;22.60;;
36443;SDS011;24692;45.642;13.806;2022-12-29T07:24:23;40.30;;;21.80;;
36443;SDS011;24692;45.642;13.806;2022-12-29T07:26:50;43.73;;;23.17;;
36443;SDS011;24692;45.642;13.806;2022-12-29T07:29:17;39.13;;;22.97;;
36443;SDS011;24692;45.642;13.806;2022-12-29T07:31:43;43.13;;;24.60;;
36443;SDS011;24692;45.642;13.806;2022-12-29T07:34:09;37.83;;;22.07;;
36443;SDS011;24692;45.642;13.806;2022-12-29T07:36:34;44.77;;;24.00;;
36443;SDS011;24692;45.642;13.806;2022-12-29T07:39:00;41.97;;;23.53;;
36443;SDS011;24692;45.642;13.806;2022-12-29T07:41:26;45.37;;;24.33;;
36443;SDS011;24692;45.642;13.806;2022-12-29T07:43:52;45.77;;;24.87;;
36443;SDS011;24692;45.642;13.806;2022-12-29T07:46:18;48.03;;;25.50;;
36443;SDS011;24692;45.642;13.806;2022-12-29T07:48:43;46.80;;;25.43;;
36443;SDS011;24692;45.642;13.806;2022-12-29T07:51:09;46.60;;;25.03;;
36443;SDS011;24692;45.642;13.806;2022-12-29T07:53:35;52.33;;;27.80;;
36443;SDS011;24692;45.642;13.806;2022-12-29T07:56:00;48.63;;;27.50;;
36443;SDS011;24692;45.642;13.806;2022-12-29T07:58:26;55.57;;;28.47;;
36443;SDS011;24692;45.642;13.806;2022-12-29T08:00:54;53.87;;;28.53;;
36443;SDS011;24692;45.642;13.806;2022-12-29T08:03:21;50.40;;;27.17;;
36443;SDS011;24692;45.642;13.806;2022-12-29T08:05:47;51.83;;;27.40;;
36443;SDS011;24692;45.642;13.806;2022-12-29T08:08:13;50.40;;;26.37;;
36443;SDS011;24692;45.642;13.806;2022-12-29T08:10:39;70.43;;;37.70;;
36443;SDS011;24692;45.642;13.806;2022-12-29T08:13:05;54.70;;;29.53;;
36443;SDS011;24692;45.642;13.806;2022-12-29T08:15:30;50.30;;;26.57;;
36443;SDS011;24692;45.642;13.806;2022-12-29T08:17:56;49.60;;;27.30;;
36443;SDS011;24692;45.642;13.806;2022-12-29T08:20:22;46.80;;;26.53;;
36443;SDS011;24692;45.642;13.806;2022-12-29T08:22:47;53.10;;;27.43;;
36443;SDS011;24692;45.642;13.806;2022-12-29T08:25:13;53.23;;;28.10;;
36443;SDS011;24692;45.642;13.806;2022-12-29T08:27:39;52.73;;;28.43;;
36443;SDS011;24692;45.642;13.806;2022-12-29T08:30:06;52.20;;;29.73;;
36443;SDS011;24692;45.642;13.806;2022-12-29T08:32:32;53.90;;;30.40;;
36443;SDS011;24692;45.642;13.806;2022-12-29T08:34:58;53.50;;;29.30;;
36443;SDS011;24692;45.642;13.806;2022-12-29T08:37:24;53.97;;;29.47;;
36443;SDS011;24692;45.642;13.806;2022-12-29T08:39:50;62.33;;;31.37;;
36443;SDS011;24692;45.642;13.806;2022-12-29T08:42:15;55.87;;;30.80;;
36443;SDS011;24692;45.642;13.806;2022-12-29T08:44:41;65.13;;;33.60;;
36443;SDS011;24692;45.642;13.806;2022-12-29T08:47:06;59.83;;;32.10;;
36443;SDS011;24692;45.642;13.806;2022-12-29T08:49:34;58.40;;;30.60;;
36443;SDS011;24692;45.642;13.806;2022-12-29T08:51:59;57.03;;;30.90;;
36443;SDS011;24692;45.642;13.806;2022-12-29T08:54:25;61.03;;;32.37;;
36443;SDS011;24692;45.642;13.806;2022-12-29T08:56:51;62.53;;;32.57;;
36443;SDS011;24692;45.642;13.806;2022-12-29T08:59:16;65.40;;;34.13;;
36443;SDS011;24692;45.642;13.806;2022-12-29T09:01:42;63.07;;;33.13;;
36443;SDS011;24692;45.642;13.806;2022-12-29T09:04:08;58.60;;;31.83;;
36443;SDS011;24692;45.642;13.806;2022-12-29T09:06:33;63.03;;;33.23;;
36443;SDS011;24692;45.642;13.806;2022-12-29T09:08:59;57.23;;;31.97;;
36443;SDS011;24692;45.642;13.806;2022-12-29T09:11:26;63.67;;;33.00;;
36443;SDS011;24692;45.642;13.806;2022-12-29T09:13:52;65.93;;;34.47;;
36443;SDS011;24692;45.642;13.806;2022-12-29T09:16:19;61.70;;;33.13;;
36443;SDS011;24692;45.642;13.806;2022-12-29T09:18:46;61.67;;;32.57;;
36443;SDS011;24692;45.642;13.806;2022-12-29T09:21:12;62.03;;;34.40;;
36443;SDS011;24692;45.642;13.806;2022-12-29T09:23:38;62.20;;;33.13;;
36443;SDS011;24692;45.642;13.806;2022-12-29T09:26:04;74.60;;;35.90;;
36443;SDS011;24692;45.642;13.806;2022-12-29T09:28:31;68.97;;;35.23;;
36443;SDS011;24692;45.642;13.806;2022-12-29T09:30:57;70.97;;;35.90;;
36443;SDS011;24692;45.642;13.806;2022-12-29T09:33:23;70.20;;;36.63;;
36443;SDS011;24692;45.642;13.806;2022-12-29T09:35:50;59.07;;;33.50;;
36443;SDS011;24692;45.642;13.806;2022-12-29T09:38:18;64.67;;;34.03;;
36443;SDS011;24692;45.642;13.806;2022-12-29T09:40:45;66.93;;;34.47;;
36443;SDS011;24692;45.642;13.806;2022-12-29T09:48:36;68.33;;;34.60;;
36443;SDS011;24692;45.642;13.806;2022-12-29T09:51:08;64.40;;;33.43;;
36443;SDS011;24692;45.642;13.806;2022-12-29T09:53:43;63.57;;;33.03;;
36443;SDS011;24692;45.642;13.806;2022-12-29T09:56:15;62.23;;;33.57;;
36443;SDS011;24692;45.642;13.806;2022-12-29T10:04:06;66.43;;;33.53;;
36443;SDS011;24692;45.642;13.806;2022-12-29T10:06:46;67.87;;;35.30;;
36443;SDS011;24692;45.642;13.806;2022-12-29T10:14:34;67.93;;;34.30;;
36443;SDS011;24692;45.642;13.806;2022-12-29T10:25:20;64.33;;;33.57;;
36443;SDS011;24692;45.642;13.806;2022-12-29T10:27:49;63.50;;;33.63;;
36443;SDS011;24692;45.642;13.806;2022-12-29T10:30:16;67.57;;;35.30;;
36443;SDS011;24692;45.642;13.806;2022-12-29T10:32:51;64.83;;;35.27;;
36443;SDS011;24692;45.642;13.806;2022-12-29T10:40:26;64.40;;;33.30;;
36443;SDS011;24692;45.642;13.806;2022-12-29T10:42:57;66.87;;;35.50;;
36443;SDS011;24692;45.642;13.806;2022-12-29T10:45:28;61.87;;;32.87;;
36443;SDS011;24692;45.642;13.806;2022-12-29T10:50:44;70.13;;;36.50;;
36443;SDS011;24692;45.642;13.806;2022-12-29T10:53:12;68.90;;;36.80;;
36443;SDS011;24692;45.642;13.806;2022-12-29T10:55:44;69.90;;;36.03;;
36443;SDS011;24692;45.642;13.806;2022-12-29T10:58:11;64.73;;;34.07;;
36443;SDS011;24692;45.642;13.806;2022-12-29T11:00:38;67.97;;;35.20;;
36443;SDS011;24692;45.642;13.806;2022-12-29T11:08:46;68.00;;;36.20;;
36443;SDS011;24692;45.642;13.806;2022-12-29T11:11:37;67.30;;;35.83;;
36443;SDS011;24692;45.642;13.806;2022-12-29T11:16:32;66.27;;;36.37;;
36443;SDS011;24692;45.642;13.806;2022-12-29T11:18:59;65.90;;;36.63;;
36443;SDS011;24692;45.642;13.806;2022-12-29T11:21:33;65.30;;;34.30;;
36443;SDS011;24692;45.642;13.806;2022-12-29T11:24:05;64.20;;;35.23;;
36443;SDS011;24692;45.642;13.806;2022-12-29T11:26:51;63.07;;;36.57;;
36443;SDS011;24692;45.642;13.806;2022-12-29T11:29:40;61.73;;;34.93;;
36443;SDS011;24692;45.642;13.806;2022-12-29T11:32:17;62.43;;;35.53;;
36443;SDS011;24692;45.642;13.806;2022-12-29T11:34:47;67.37;;;34.77;;
36443;SDS011;24692;45.642;13.806;2022-12-29T11:40:00;60.77;;;32.83;;
36443;SDS011;24692;45.642;13.806;2022-12-29T11:45:18;64.47;;;34.27;;
36443;SDS011;24692;45.642;13.806;2022-12-29T11:48:18;62.67;;;32.07;;
36443;SDS011;24692;45.642;13.806;2022-12-29T11:50:53;57.77;;;32.60;;
36443;SDS011;24692;45.642;13.806;2022-12-29T11:53:32;63.03;;;33.97;;
36443;SDS011;24692;45.642;13.806;2022-12-29T11:56:14;62.87;;;33.90;;
36443;SDS011;24692;45.642;13.806;2022-12-29T11:58:41;63.07;;;34.33;;
36443;SDS011;24692;45.642;13.806;2022-12-29T12:01:16;60.33;;;33.20;;
36443;SDS011;24692;45.642;13.806;2022-12-29T12:03:44;62.80;;;34.47;;
36443;SDS011;24692;45.642;13.806;2022-12-29T12:06:32;61.03;;;32.73;;
36443;SDS011;24692;45.642;13.806;2022-12-29T12:09:02;64.23;;;34.73;;
36443;SDS011;24692;45.642;13.806;2022-12-29T12:11:51;64.47;;;34.83;;
36443;SDS011;24692;45.642;13.806;2022-12-29T12:17:03;61.17;;;33.50;;
36443;SDS011;24692;45.642;13.806;2022-12-29T12:19:40;63.97;;;34.20;;
36443;SDS011;24692;45.642;13.806;2022-12-29T12:24:57;63.50;;;34.77;;
36443;SDS011;24692;45.642;13.806;2022-12-29T12:27:46;63.60;;;34.50;;
36443;SDS011;24692;45.642;13.806;2022-12-29T12:30:21;64.23;;;36.03;;
36443;SDS011;24692;45.642;13.806;2022-12-29T12:33:03;66.47;;;35.47;;
36443;SDS011;24692;45.642;13.806;2022-12-29T12:46:37;67.67;;;35.40;;
36443;SDS011;24692;45.642;13.806;2022-12-29T12:49:25;72.00;;;37.57;;
36443;SDS011;24692;45.642;13.806;2022-12-29T12:52:24;67.23;;;35.70;;
36443;SDS011;24692;45.642;13.806;2022-12-29T13:00:20;63.07;;;33.80;;
36443;SDS011;24692;45.642;13.806;2022-12-29T13:22:01;72.50;;;36.87;;
36443;SDS011;24692;45.642;13.806;2022-12-29T13:28:00;66.53;;;36.77;;
36443;SDS011;24692;45.642;13.806;2022-12-29T13:30:33;70.17;;;37.53;;
36443;SDS011;24692;45.642;13.806;2022-12-29T13:40:45;67.10;;;36.37;;
36443;SDS011;24692;45.642;13.806;2022-12-29T13:43:15;77.03;;;38.23;;
36443;SDS011;24692;45.642;13.806;2022-12-29T13:45:43;72.43;;;36.60;;
36443;SDS011;24692;45.642;13.806;2022-12-29T13:48:17;72.20;;;38.70;;
36443;SDS011;24692;45.642;13.806;2022-12-29T13:50:48;73.97;;;37.73;;
36443;SDS011;24692;45.642;13.806;2022-12-29T13:58:57;74.23;;;38.83;;
36443;SDS011;24692;45.642;13.806;2022-12-29T14:04:33;72.40;;;37.97;;
36443;SDS011;24692;45.642;13.806;2022-12-29T14:09:40;74.63;;;39.23;;
36443;SDS011;24692;45.642;13.806;2022-12-29T14:15:06;74.37;;;41.17;;
36443;SDS011;24692;45.642;13.806;2022-12-29T14:17:41;72.73;;;38.50;;
36443;SDS011;24692;45.642;13.806;2022-12-29T14:20:18;73.83;;;40.20;;
36443;SDS011;24692;45.642;13.806;2022-12-29T14:22:57;74.37;;;39.37;;
36443;SDS011;24692;45.642;13.806;2022-12-29T14:25:57;76.23;;;39.07;;
36443;SDS011;24692;45.642;13.806;2022-12-29T14:28:38;74.13;;;39.73;;
36443;SDS011;24692;45.642;13.806;2022-12-29T14:33:41;78.03;;;40.57;;
36443;SDS011;24692;45.642;13.806;2022-12-29T14:36:33;75.23;;;40.70;;
36443;SDS011;24692;45.642;13.806;2022-12-29T14:38:59;74.33;;;39.07;;
36443;SDS011;24692;45.642;13.806;2022-12-29T14:41:32;75.73;;;40.67;;
36443;SDS011;24692;45.642;13.806;2022-12-29T14:44:10;67.83;;;36.80;;
36443;SDS011;24692;45.642;13.806;2022-12-29T14:49:19;72.90;;;38.50;;
36443;SDS011;24692;45.642;13.806;2022-12-29T14:51:46;70.00;;;39.10;;
36443;SDS011;24692;45.642;13.806;2022-12-29T14:56:58;69.87;;;38.77;;
36443;SDS011;24692;45.642;13.806;2022-12-29T14:59:29;73.97;;;40.23;;
36443;SDS011;24692;45.642;13.806;2022-12-29T15:01:57;72.40;;;40.63;;
36443;SDS011;24692;45.642;13.806;2022-12-29T15:04:32;67.23;;;39.10;;
36443;SDS011;24692;45.642;13.806;2022-12-29T15:07:00;75.37;;;39.07;;
36443;SDS011;24692;45.642;13.806;2022-12-29T15:09:30;72.50;;;38.27;;
36443;SDS011;24692;45.642;13.806;2022-12-29T15:12:05;73.73;;;39.03;;
36443;SDS011;24692;45.642;13.806;2022-12-29T15:17:29;68.43;;;37.70;;
36443;SDS011;24692;45.642;13.806;2022-12-29T15:19:57;76.53;;;40.67;;
36443;SDS011;24692;45.642;13.806;2022-12-29T15:22:24;73.43;;;39.57;;
36443;SDS011;24692;45.642;13.806;2022-12-29T15:24:51;72.03;;;39.03;;
36443;SDS011;24692;45.642;13.806;2022-12-29T15:27:19;79.00;;;38.40;;
36443;SDS011;24692;45.642;13.806;2022-12-29T15:29:56;75.20;;;40.13;;
36443;SDS011;24692;45.642;13.806;2022-12-29T15:32:27;78.17;;;40.60;;
36443;SDS011;24692;45.642;13.806;2022-12-29T15:34:55;77.97;;;40.10;;
36443;SDS011;24692;45.642;13.806;2022-12-29T15:37:27;76.73;;;39.83;;
36443;SDS011;24692;45.642;13.806;2022-12-29T15:39:57;75.07;;;39.03;;
36443;SDS011;24692;45.642;13.806;2022-12-29T15:44:48;74.47;;;40.07;;
36443;SDS011;24692;45.642;13.806;2022-12-29T15:47:18;71.70;;;39.57;;
36443;SDS011;24692;45.642;13.806;2022-12-29T15:49:53;73.83;;;38.53;;
36443;SDS011;24692;45.642;13.806;2022-12-29T15:52:42;73.43;;;38.33;;
36443;SDS011;24692;45.642;13.806;2022-12-29T15:55:16;74.73;;;39.07;;
36443;SDS011;24692;45.642;13.806;2022-12-29T15:57:49;79.50;;;40.50;;
36443;SDS011;24692;45.642;13.806;2022-12-29T16:00:23;72.70;;;37.90;;
36443;SDS011;24692;45.642;13.806;2022-12-29T16:02:52;72.07;;;38.60;;
36443;SDS011;24692;45.642;13.806;2022-12-29T16:05:19;70.37;;;37.20;;
36443;SDS011;24692;45.642;13.806;2022-12-29T16:07:52;72.77;;;38.87;;
36443;SDS011;24692;45.642;13.806;2022-12-29T16:10:39;74.43;;;38.33;;
36443;SDS011;24692;45.642;13.806;2022-12-29T16:15:46;76.03;;;38.20;;
36443;SDS011;24692;45.642;13.806;2022-12-29T16:20:59;75.57;;;37.87;;
36443;SDS011;24692;45.642;13.806;2022-12-29T16:23:27;75.07;;;38.53;;
36443;SDS011;24692;45.642;13.806;2022-12-29T16:25:55;71.40;;;39.00;;
36443;SDS011;24692;45.642;13.806;2022-12-29T16:31:32;74.23;;;38.17;;
36443;SDS011;24692;45.642;13.806;2022-12-29T16:33:58;76.83;;;37.50;;
36443;SDS011;24692;45.642;13.806;2022-12-29T16:37:34;74.53;;;38.07;;
36443;SDS011;24692;45.642;13.806;2022-12-29T16:39:52;74.63;;;38.80;;
36443;SDS011;24692;45.642;13.806;2022-12-29T16:50:47;74.07;;;37.50;;
36443;SDS011;24692;45.642;13.806;2022-12-29T16:53:21;71.67;;;39.63;;
36443;SDS011;24692;45.642;13.806;2022-12-29T16:55:52;75.10;;;38.60;;
36443;SDS011;24692;45.642;13.806;2022-12-29T16:58:21;74.77;;;39.57;;
36443;SDS011;24692;45.642;13.806;2022-12-29T17:00:51;75.73;;;40.30;;
36443;SDS011;24692;45.642;13.806;2022-12-29T17:03:23;79.33;;;40.00;;
36443;SDS011;24692;45.642;13.806;2022-12-29T17:05:57;77.87;;;40.50;;
36443;SDS011;24692;45.642;13.806;2022-12-29T17:08:23;75.53;;;40.20;;
36443;SDS011;24692;45.642;13.806;2022-12-29T17:10:49;75.60;;;41.40;;
36443;SDS011;24692;45.642;13.806;2022-12-29T17:13:36;72.90;;;39.73;;
36443;SDS011;24692;45.642;13.806;2022-12-29T17:16:03;78.03;;;40.87;;
36443;SDS011;24692;45.642;13.806;2022-12-29T17:18:31;74.63;;;40.90;;
36443;SDS011;24692;45.642;13.806;2022-12-29T17:20:57;85.50;;;42.33;;
36443;SDS011;24692;45.642;13.806;2022-12-29T17:23:23;83.27;;;41.53;;
36443;SDS011;24692;45.642;13.806;2022-12-29T17:25:49;76.93;;;40.70;;
36443;SDS011;24692;45.642;13.806;2022-12-29T17:28:21;76.07;;;41.03;;